CheckWX is a tool to help pilots better visualize weather data.  It is not intended as a substitute for an official pre-flight weather briefing.

08:14:13 UTC

PATK TAF
Talkeetna Airport
Talkeetna, Alaska, USA
PATK 190520Z 1906/2006 VRB03KT P6SM -SHRA OVC045 FM191200 VRB03KT 5SM -SHSN BKN030 FM191600 VRB03KT P6SM VCSH SCT035 BKN050 FM192200 36005KT P6SM SKC

Mar-19@
06:00 UTC

Mar-19 @ 06:00 UTC

Mar-19@
12:00 UTC

Mar-19 @ 12:00 UTC

PATK 190520Z 1906/2006 VRB03KT P6SM -SHRA OVC045
Wind
  • Variable at 3 KTS
Conditions
Light Rain
Cloud Levels
  • Overcast at 4,500' AGL

Mar-19@
12:00 UTC

Mar-19 @ 12:00 UTC

Mar-19@
16:00 UTC

Mar-19 @ 16:00 UTC

FM191200 VRB03KT 5SM -SHSN BKN030

From

From Standard forecast or significant change

Wind
  • Variable at 3 KTS
Conditions
Light Snow
Cloud Levels
  • Broken at 3,000' AGL

Mar-19@
16:00 UTC

Mar-19 @ 16:00 UTC

Mar-19@
22:00 UTC

Mar-19 @ 22:00 UTC

FM191600 VRB03KT P6SM VCSH SCT035 BKN050

From

From Standard forecast or significant change

Wind
  • Variable at 3 KTS
Cloud Levels
  • Scattered at 3,500' AGL
  • Broken at 5,000' AGL

Mar-19@
22:00 UTC

Mar-19 @ 22:00 UTC

Mar-20@
06:00 UTC

Mar-20 @ 06:00 UTC

FM192200 36005KT P6SM SKC

From

From Standard forecast or significant change

Wind
  • 360° at 5 KTS
Cloud Levels
  • Clear skies